• Join FlightAware (Why Join?)
  • Login
  • US Flag 
Rudolph Flight #1: Scheduled 
07:43PM EST


 

Airport Tracker/Info


-or-


 

Live Flight TrackerFlight Track Log ✈ FLG3862 ✈ 21-Apr-2013 ✈ KDTW - KBTV

Flight Track Log - Related Links

Times and Time Zones

All times are in EDT time to prevent confusion due to time zone crossing. See the FLG3862 flight status page for this flight to view local times or setup timezone preferences in your user account.

Time Position Orientation Groundspeed Altitude Reporting Facility
EDT Latitude Longitude Course Direction KTS MPH feet Rate Location/Type
10:29AM 42.2017 -83.3558 192° South 155 178 1,700  Level FAA TRACON SMA TRACON (SMA)
10:30AM 42.1867 -83.3603 192° South 163 188 2,600 2,400 Climbing FAA TRACON SMA TRACON (SMA)
10:30AM 42.1722 -83.3636 190° South 184 212 3,300 2,400 Climbing FAA TRACON SMA TRACON (SMA)
10:30AM 42.1517 -83.3678 189° South 215 247 4,200 2,700 Climbing FAA TRACON SMA TRACON (SMA)
10:31AM 42.1294 -83.3719 188° South 234 269 5,100 2,220 Climbing FAA TRACON SMA TRACON (SMA)
10:31AM 42.1081 -83.3608 159° South 255 293 5,700 2,220 Climbing FAA TRACON SMA TRACON (SMA)
10:31AM 42.0978 -83.3369 120° Southeast 265 305 6,500 2,580 Climbing Cleveland Center
10:32AM 42.0919 -83.2331 94° East 270 311 8,900 1,800 Climbing Cleveland Center
10:33AM 42.1028 -83.1272 82° East 348 400 10,100 1,140 Climbing Cleveland Center
10:34AM 42.1467 -83.0225 60° Northeast 370 426 11,200 1,380 Climbing Cleveland Center
10:35AM 42.1950 -82.8953 63° Northeast 386 444 12,900 1,920 Climbing Cleveland Center
10:36AM 42.2478 -82.7656 61° Northeast 386 444 15,100 2,160 Climbing Cleveland Center
10:37AM 42.2981 -82.6325 63° Northeast 386 444 17,300 2,040 Climbing Cleveland Center
10:38AM 42.3483 -82.5019 62° Northeast 386 444 19,200 1,860 Climbing Cleveland Center
10:39AM 42.3631 -82.3592 82° East 377 434 21,100 1,560 Climbing Cleveland Center
10:40AM 42.3569 -82.2072 93° East 377 434 22,400 1,260 Climbing Cleveland Center
10:41AM 42.3508 -82.0525 93° East 399 459 23,700 1,200 Climbing Cleveland Center
10:42AM 42.3444 -81.8922 93° East 410 472 24,900 1,020 Climbing Cleveland Center
10:43AM 42.3378 -81.7319 93° East 428 493 25,800 840 Climbing Cleveland Center
10:44AM 42.3289 -81.5661 94° East 439 505 26,600 780 Climbing Cleveland Center
10:45AM 42.3200 -81.3806 94° East 444 511 27,400 840 Climbing Cleveland Center
10:46AM 42.3125 -81.2064 93° East 449 517 28,300 840 Climbing Cleveland Center
10:47AM 42.3050 -81.0353 93° East 463 533 29,100 780 Climbing Cleveland Center
10:48AM 42.2953 -80.8611 94° East 463 533 29,900 780 Climbing Cleveland Center
10:49AM 42.3414 -80.6983 69° East 458 527 30,700 540 Climbing Cleveland Center
10:50AM 42.3936 -80.5325 67° East 463 533 31,000 120 Climbing Cleveland Center
10:51AM 42.4517 -80.3664 65° Northeast 477 549 31,000  Level Cleveland Center
10:52AM 42.5011 -80.1972 68° East 482 555 31,000  Level Cleveland Center
10:53AM 42.5547 -80.0447 64° Northeast 487 560 31,000  Level Cleveland Center
10:54AM 42.6164 -79.8525 66° East 492 566 31,000  Level Cleveland Center
10:55AM 42.6733 -79.6794 66° East 492 566 31,000  Level Cleveland Center
10:56AM 42.7242 -79.5064 68° East 497 572 31,000  Level Cleveland Center
10:57AM 42.7786 -79.3300 67° East 497 572 31,000  Level Cleveland Center
10:58AM 42.8328 -79.1564 67° East 502 578 31,000  Level Cleveland Center
10:59AM 42.8867 -78.9767 68° East 497 572 31,000  Level Cleveland Center
11:00AM 42.9406 -78.8022 67° East 497 572 31,000  Level Cleveland Center
11:01AM 42.9939 -78.6219 68° East 497 572 31,000  Level Cleveland Center
11:02AM 43.0411 -78.4669 67° East 497 572 31,000  Level Cleveland Center
11:03AM 43.0942 -78.2917 67° East 497 572 31,000  Level Cleveland Center
11:04AM 43.1467 -78.1106 68° East 497 572 31,000  Level Cleveland Center
11:05AM 43.1989 -77.9347 68° East 497 572 31,000  Level Cleveland Center
11:06AM 43.2511 -77.7558 68° East 497 572 31,000  Level Cleveland Center
11:07AM 43.3028 -77.5764 68° East 497 572 31,000  Level Cleveland Center
11:08AM 43.3542 -77.3969 68° East 497 572 31,000  Level Cleveland Center
11:10AM 43.4483 -77.0769 68° East 499 574 31,000  Level Boston Center
11:11AM 43.4975 -76.8944 70° East 499 574 31,000  Level Boston Center
11:12AM 43.5503 -76.7119 68° East 499 574 31,000  Level Boston Center
11:13AM 43.6028 -76.5322 68° East 505 581 31,000  Level Boston Center
11:14AM 43.6531 -76.3461 69° East 505 581 31,000  Level Boston Center
11:15AM 43.7028 -76.1653 69° East 505 581 31,000  Level Boston Center
11:16AM 43.7544 -75.9789 69° East 505 581 31,000 -420 Level Boston Center
11:17AM 43.8039 -75.7947 70° East 505 581 30,200 -1,080 Descending Boston Center
11:18AM 43.8531 -75.6072 70° East 510 587 28,900 -1,200 Descending Boston Center
11:19AM 43.9039 -75.4197 69° East 494 568 27,800 -1,200 Descending Boston Center
11:20AM 43.9478 -75.2489 70° East 474 545 26,500 -1,260 Descending Boston Center
11:21AM 43.9914 -75.0778 70° East 468 539 25,300 -1,200 Descending Boston Center
11:22AM 44.0325 -74.9178 70° East 455 524 24,100 -1,200 Descending Boston Center
11:23AM 44.0733 -74.7547 71° East 450 518 22,900 -1,200 Descending Boston Center
11:24AM 44.1161 -74.5975 69° East 444 511 21,700 -1,200 Descending Boston Center
11:25AM 44.1544 -74.4397 71° East 438 504 20,500 -1,200 Descending Boston Center
11:26AM 44.1925 -74.2844 71° East 432 497 19,300 -1,200 Descending Boston Center
11:27AM 44.2300 -74.1378 70° East 420 483 18,100 -1,140 Descending Boston Center
11:28AM 44.2656 -73.9911 71° East 404 465 17,100 -1,860 Descending Boston Center
11:29AM 44.3006 -73.8528 70° East 392 451 14,400 -2,700 Descending Boston Center
11:30AM 44.3311 -73.7317 71° East 380 437 11,700 -2,100 Descending Boston Center
11:31AM 44.3575 -73.6103 73° East 343 395 10,200 -1,860 Descending Boston Center
11:32AM 44.3503 -73.4881 95° East 288 331 8,000 -2,220 Descending Boston Center
11:33AM 44.3469 -73.3836 93° East 277 319 5,800 -1,260 Descending Boston Center
11:34AM 44.3414 -73.2933 95° East 251 289 5,500 -120 Descending Boston Center
11:35AM 44.3150 -73.2292 120° Southeast 203 234 5,600  Climbing Boston Center
11:36AM 44.2672 -73.1794 143° Southeast 192 221 5,500 -300 Descending Boston Center
11:37AM 44.2197 -73.1267 141° Southeast 213 245 5,000 -300 Descending Boston Center
11:38AM 44.2325 -73.0658 74° East 158 182 5,000  Level Boston Center
11:39AM 44.2722 -73.0258 36° Northeast 151 174 5,000  Level Boston Center
11:40AM 44.3122 -72.9914 32° Northeast 170 196 5,000 -300 Level Boston Center
11:41AM 44.3600 -72.9858 North 175 201 4,400 -600 Descending Boston Center